Archival Weather

Abadan

Abadan, Iran (OIAA)

Report from: Monday, July 18, 2022 11:00 PM UTC
Current time: Tuesday, June 18, 2024 1:38 PM UTC

Current weather – Weather history – Daily summaries
Weather forecast

Temperature36.0°C (96.8°F)
Heat index33.6°C (92.4°F)
Dew point5.0°C (41.0°F)
Winds 8 kts (4.1 m/s, 9.2 mph) North-Northwest (330°)
Clouds Sky clear
Altimeter29.41 in.Hg (996 mB)
Relative humidity15 %
Density altitude3,087 ft. (941 m)
Remarks Ceiling and visibility OK
Flight conditions Visual Meteorological Conditions
Raw dataOIAA 182300Z 33008KT CAVOK 36/05 Q0996
An error has occurred. This application may no longer respond until reloaded. Reload 🗙